Time;durP1;ratioP1;P1;durP2;ratioP2;P2;SDS_P1;SDS_P2;PMS_P1;PMS_P2;Temp;Humidity;BMP_temperature;BMP_pressure;BME280_temperature;BME280_humidity;BME280_pressure;Samples;Min_cycle;Max_cycle;Signal;HPM_P1;HPM_P2
2023/06/10 00:00:31;;;;;;;11.10;8.55;;;;;;;14.73;74.63;95692.88;2025559;29;20067;-59
2023/06/10 00:01:34;;;;;;;12.60;8.77;;;;;;;14.71;74.83;95694.75;2026198;29;20056;-60
2023/06/10 00:02:35;;;;;;;10.15;8.70;;;;;;;14.74;74.85;95694.53;2025584;29;20067;-59
2023/06/10 00:03:36;;;;;;;12.18;8.57;;;;;;;14.68;75.32;95693.19;2025467;29;20428;-60
2023/06/10 00:04:37;;;;;;;10.73;8.93;;;;;;;14.63;74.83;95690.03;2025766;29;20060;-61
2023/06/10 00:05:39;;;;;;;9.38;8.18;;;;;;;14.58;75.05;95694.75;2025496;29;20064;-60
2023/06/10 00:06:40;;;;;;;12.10;9.20;;;;;;;14.56;75.53;95697.44;2025735;29;20072;-56
2023/06/10 00:07:42;;;;;;;13.43;9.13;;;;;;;14.55;76.10;95698.41;2025911;29;20477;-56
2023/06/10 00:08:43;;;;;;;11.20;9.18;;;;;;;14.51;76.78;95691.69;2026351;29;20051;-56
2023/06/10 00:09:44;;;;;;;11.45;9.07;;;;;;;14.61;75.63;95693.69;2025751;29;20061;-57
2023/06/10 00:10:45;;;;;;;10.73;9.13;;;;;;;14.67;75.62;95699.34;2026006;29;20056;-57
2023/06/10 00:11:46;;;;;;;13.20;9.13;;;;;;;14.54;75.32;95678.44;2025482;29;20492;-57
2023/06/10 00:12:47;;;;;;;13.95;9.68;;;;;;;14.61;75.73;95691.09;2026030;29;20048;-57
2023/06/10 00:13:48;;;;;;;9.93;8.80;;;;;;;14.56;76.31;95697.44;2025340;29;20056;-57
2023/06/10 00:14:51;;;;;;;11.75;9.45;;;;;;;14.54;76.10;95701.97;2026323;29;20319;-58
2023/06/10 00:15:52;;;;;;;11.55;8.20;;;;;;;14.50;76.25;95692.63;2025570;29;20060;-56
2023/06/10 00:16:55;;;;;;;12.00;8.93;;;;;;;14.52;76.49;95692.53;2025973;29;20059;-60
2023/06/10 00:17:56;;;;;;;9.65;8.60;;;;;;;14.46;76.08;95677.25;2026115;29;20051;-60
2023/06/10 00:19:01;;;;;;;11.18;8.73;;;;;;;14.59;76.27;95696.41;2025751;29;20087;-60
2023/06/10 00:20:08;;;;;;;10.43;9.07;;;;;;;14.58;76.62;95699.13;2025291;29;20052;-60
2023/06/10 00:21:10;;;;;;;12.20;8.57;;;;;;;14.58;76.00;95699.13;2025360;29;20108;-60
2023/06/10 00:22:11;;;;;;;12.40;9.48;;;;;;;14.62;76.26;95695.38;2025548;29;20057;-60
2023/06/10 00:23:13;;;;;;;10.40;9.05;;;;;;;14.67;75.68;95691.50;2025797;29;20064;-60
2023/06/10 00:24:14;;;;;;;10.60;9.20;;;;;;;14.72;75.53;95694.63;2025617;29;20048;-60
2023/06/10 00:25:15;;;;;;;10.38;8.57;;;;;;;14.74;74.85;95691.94;2025248;29;20377;-60
2023/06/10 00:26:16;;;;;;;11.20;9.13;;;;;;;14.76;75.10;95698.72;2025603;29;20061;-61
2023/06/10 00:27:18;;;;;;;12.77;9.32;;;;;;;14.73;75.19;95703.34;2025626;29;20099;-61
2023/06/10 00:28:20;;;;;;;9.90;8.57;;;;;;;14.68;75.23;95697.59;2025548;29;20064;-61
2023/06/10 00:29:21;;;;;;;10.82;9.00;;;;;;;14.66;75.42;95695.06;2025519;29;20057;-61
2023/06/10 00:30:22;;;;;;;9.65;8.65;;;;;;;14.66;75.02;95695.06;2025565;29;20060;-61
2023/06/10 00:31:23;;;;;;;10.82;9.13;;;;;;;14.64;75.83;95699.56;2017478;29;20406;-61
2023/06/10 00:32:24;;;;;;;11.25;9.38;;;;;;;14.61;75.77;95698.94;2016881;29;20105;-60
2023/06/10 00:33:26;;;;;;;10.25;9.02;;;;;;;14.60;75.69;95700.72;2025332;29;20075;-61
2023/06/10 00:34:27;;;;;;;11.20;9.23;;;;;;;14.61;75.51;95701.53;2025530;29;20543;-61
2023/06/10 00:35:28;;;;;;;11.82;8.98;;;;;;;14.61;75.61;95696.31;2017641;29;20143;-62
2023/06/10 00:36:29;;;;;;;12.55;9.68;;;;;;;14.65;76.34;95696.00;2017473;29;20057;-62
2023/06/10 00:37:32;;;;;;;13.27;8.93;;;;;;;14.62;76.00;95695.38;2025246;29;20164;-62
2023/06/10 00:38:33;;;;;;;16.00;9.90;;;;;;;14.57;76.15;95698.31;2025545;29;20060;-60
2023/06/10 00:39:34;;;;;;;10.57;9.30;;;;;;;14.56;75.92;95696.63;2025727;29;20049;-60
2023/06/10 00:40:41;;;;;;;10.60;9.50;;;;;;;14.48;76.09;95691.88;2025933;29;20477;-60
2023/06/10 00:41:42;;;;;;;11.40;9.50;;;;;;;14.56;76.46;95694.84;2020114;29;20502;-61
2023/06/10 00:42:43;;;;;;;12.23;8.52;;;;;;;14.44;76.55;95673.91;2008961;29;20505;-61
2023/06/10 00:43:45;;;;;;;10.23;8.50;;;;;;;14.52;75.99;95695.13;2017590;29;20041;-60
2023/06/10 00:44:46;;;;;;;11.88;9.38;;;;;;;14.49;76.18;95703.19;2025390;29;20060;-61
2023/06/10 00:45:47;;;;;;;14.68;9.68;;;;;;;14.49;76.39;95703.19;2017754;29;20091;-61
2023/06/10 00:46:51;;;;;;;12.32;9.52;;;;;;;14.55;76.19;95695.78;2009123;29;20062;-61
2023/06/10 00:47:52;;;;;;;10.68;8.90;;;;;;;14.58;75.49;95696.53;2009692;29;20057;-61
2023/06/10 00:48:53;;;;;;;13.40;9.52;;;;;;;14.54;76.29;95701.09;1994450;29;20042;-61
2023/06/10 00:49:54;;;;;;;9.90;8.88;;;;;;;14.47;76.05;95697.22;2002263;29;20050;-61
2023/06/10 00:50:55;;;;;;;13.27;9.63;;;;;;;14.45;76.51;95699.94;2017597;29;20467;-61
2023/06/10 00:51:56;;;;;;;11.10;8.80;;;;;;;14.41;76.49;95692.41;2009401;29;20065;-62
2023/06/10 00:52:58;;;;;;;10.73;9.60;;;;;;;14.40;76.72;95696.78;2009411;29;20072;-62
2023/06/10 00:53:59;;;;;;;10.85;9.63;;;;;;;14.42;76.83;95701.91;2009203;29;20064;-61
2023/06/10 00:55:00;;;;;;;14.05;9.38;;;;;;;14.36;77.04;95694.50;2009776;29;20438;-61
2023/06/10 00:56:02;;;;;;;10.20;9.10;;;;;;;14.26;76.70;95676.00;2025720;29;20130;-61
2023/06/10 00:57:03;;;;;;;11.60;9.50;;;;;;;14.30;77.46;95687.88;2017774;29;20049;-61
2023/06/10 00:58:05;;;;;;;12.65;8.88;;;;;;;14.21;77.58;95678.91;2009834;29;20060;-61
2023/06/10 00:59:07;;;;;;;12.93;9.73;;;;;;;14.25;77.69;95687.38;2010041;29;20090;-62
2023/06/10 01:00:09;;;;;;;10.73;9.55;;;;;;;14.23;77.94;95690.09;2001954;29;20057;-61
2023/06/10 01:01:11;;;;;;;9.82;8.77;;;;;;;14.27;77.93;95690.69;2009348;29;20490;-61
2023/06/10 01:02:12;;;;;;;11.48;10.05;;;;;;;14.26;77.97;95682.03;2025139;29;20178;-62
2023/06/10 01:03:13;;;;;;;14.25;9.30;;;;;;;14.17;77.93;95677.44;2017205;29;20068;-61
2023/06/10 01:04:14;;;;;;;12.00;9.45;;;;;;;14.23;78.11;95697.91;2017072;29;20057;-62
2023/06/10 01:05:15;;;;;;;13.10;9.55;;;;;;;14.27;77.97;95688.09;2025915;29;20457;-61
2023/06/10 01:06:37;;;;;;;12.32;9.63;;;;;;;14.26;78.21;95684.66;2017085;29;20100;-62
2023/06/10 01:08:05;;;;;;;11.40;9.05;;;;;;;14.27;78.36;95688.09;2004530;29;20054;-61
2023/06/10 01:09:31;;;;;;;11.50;9.63;;;;;;;14.25;77.77;95684.78;2009113;29;20154;-61
2023/06/10 01:10:42;;;;;;;11.60;9.65;;;;;;;14.07;77.94;95668.53;1997646;29;20421;-61
2023/06/10 01:11:46;;;;;;;13.25;8.60;;;;;;;14.18;78.41;95686.09;1998477;29;20073;-61
2023/06/10 01:13:11;;;;;;;11.85;9.45;;;;;;;14.18;78.34;95686.94;2009687;29;20057;-61
2023/06/10 01:14:12;;;;;;;11.95;9.55;;;;;;;14.12;78.59;95687.34;2020965;29;20056;-62
2023/06/10 01:15:13;;;;;;;10.95;8.60;;;;;;;14.10;78.77;95690.06;2009632;29;20128;-62
2023/06/10 01:16:14;;;;;;;10.18;9.07;;;;;;;14.13;78.88;95689.00;2009711;29;20041;-62
2023/06/10 01:17:16;;;;;;;12.07;9.68;;;;;;;14.11;78.68;95696.09;2017077;29;20052;-61
2023/06/10 01:18:17;;;;;;;10.75;9.65;;;;;;;14.08;78.93;95691.91;2001973;29;20448;-61
2023/06/10 01:19:18;;;;;;;12.32;9.40;;;;;;;14.07;78.99;95684.22;2009160;29;20065;-61
2023/06/10 01:20:19;;;;;;;12.45;9.40;;;;;;;14.09;79.42;95696.22;2017393;29;20056;-62
2023/06/10 01:21:24;;;;;;;11.80;10.27;;;;;;;14.03;79.33;95673.13;2017054;29;20135;-62
2023/06/10 01:22:28;;;;;;;12.43;9.32;;;;;;;14.02;78.77;95663.63;2025544;29;20052;-61
2023/06/10 01:23:29;;;;;;;16.13;9.95;;;;;;;14.21;78.66;95691.94;2017226;29;20408;-61
2023/06/10 01:24:34;;;;;;;11.27;9.35;;;;;;;14.21;78.35;95688.50;2001715;29;20523;-61
2023/06/10 01:25:37;;;;;;;11.63;9.57;;;;;;;14.16;78.53;95683.59;2010497;29;20052;-61
2023/06/10 01:26:38;;;;;;;10.90;9.35;;;;;;;14.19;78.50;95693.00;2009128;29;20072;-61
2023/06/10 01:27:39;;;;;;;10.93;9.48;;;;;;;14.16;78.96;95694.03;2002363;29;20041;-61
2023/06/10 01:28:53;;;;;;;10.93;9.48;;;;;;;14.09;78.19;95677.13;2009567;29;20478;-61
2023/06/10 01:30:03;;;;;;;11.38;9.52;;;;;;;14.10;78.80;95692.66;2009494;29;20096;-61
2023/06/10 01:31:16;;;;;;;15.80;9.48;;;;;;;14.10;78.68;95687.44;2011966;29;20045;-61
2023/06/10 01:32:37;;;;;;;12.38;9.75;;;;;;;13.98;79.16;95674.34;2021163;29;20421;-61
2023/06/10 01:33:42;;;;;;;13.07;10.07;;;;;;;14.07;79.22;95690.25;2017584;29;20049;-61
2023/06/10 01:34:43;;;;;;;12.55;9.35;;;;;;;14.06;79.17;95690.34;2020675;29;20045;-61
2023/06/10 01:35:45;;;;;;;10.18;9.07;;;;;;;13.98;79.15;95677.81;2016928;29;20052;-61
2023/06/10 01:36:47;;;;;;;11.98;9.20;;;;;;;14.04;79.34;95697.47;2016897;29;20432;-61
2023/06/10 01:37:48;;;;;;;11.95;10.10;;;;;;;14.02;79.67;95701.94;2017157;29;20052;-61
2023/06/10 01:38:50;;;;;;;11.48;9.88;;;;;;;14.04;79.26;95693.06;2017262;29;20413;-62
2023/06/10 01:39:51;;;;;;;12.63;9.45;;;;;;;14.02;79.70;95701.94;2009638;29;20053;-61
2023/06/10 01:40:53;;;;;;;12.38;9.48;;;;;;;14.01;79.64;95705.50;2001970;29;20046;-61
2023/06/10 01:41:54;;;;;;;12.73;10.05;;;;;;;13.96;79.99;95702.34;2002101;29;20545;-61
2023/06/10 01:42:55;;;;;;;11.13;10.00;;;;;;;13.97;80.08;95710.06;2001879;29;20518;-61
2023/06/10 01:43:56;;;;;;;11.50;9.90;;;;;;;13.98;80.30;95716.13;2009826;29;20058;-61
2023/06/10 01:44:58;;;;;;;13.60;10.27;;;;;;;13.94;80.35;95709.44;2016774;29;20060;-61
2023/06/10 01:46:00;;;;;;;12.27;10.10;;;;;;;13.97;80.22;95711.84;2016763;29;20064;-61
2023/06/10 01:47:01;;;;;;;12.45;10.65;;;;;;;14.01;80.02;95710.72;2017338;29;20357;-61
2023/06/10 01:48:02;;;;;;;12.30;10.10;;;;;;;13.98;80.15;95710.91;2017188;29;20045;-61
2023/06/10 01:49:03;;;;;;;15.23;11.40;;;;;;;13.93;80.19;95702.56;2025282;29;20060;-61
2023/06/10 01:50:05;;;;;;;12.35;9.93;;;;;;;13.95;80.30;95700.66;2016437;29;20505;-61
2023/06/10 01:51:06;;;;;;;11.20;9.73;;;;;;;13.92;80.15;95713.91;2016677;29;20056;-61
2023/06/10 01:52:07;;;;;;;12.10;9.98;;;;;;;13.92;80.58;95713.91;2024998;29;20056;-61
2023/06/10 01:53:08;;;;;;;13.60;10.48;;;;;;;13.87;80.59;95706.38;2024968;29;20395;-61
2023/06/10 01:54:10;;;;;;;11.32;9.75;;;;;;;13.86;80.63;95710.75;2017104;29;20052;-61
2023/06/10 01:55:11;;;;;;;12.85;10.20;;;;;;;13.83;81.15;95712.75;2017086;29;20424;-61
2023/06/10 01:56:17;;;;;;;10.98;9.75;;;;;;;13.83;81.31;95716.19;2024113;29;20083;-61
2023/06/10 01:57:19;;;;;;;14.85;9.77;;;;;;;13.71;81.84;95701.31;2017164;29;20056;-61
2023/06/10 01:58:20;;;;;;;12.77;10.77;;;;;;;13.80;81.53;95713.78;2016743;29;20120;-61
2023/06/10 01:59:21;;;;;;;12.90;10.10;;;;;;;13.81;81.31;95718.06;2009556;29;20089;-61
2023/06/10 02:00:22;;;;;;;11.80;10.35;;;;;;;13.80;81.26;95718.16;2009437;29;20176;-62
2023/06/10 02:01:23;;;;;;;11.68;9.25;;;;;;;13.73;81.50;95717.72;2016837;29;20061;-61
2023/06/10 02:02:25;;;;;;;11.52;10.20;;;;;;;13.71;81.52;95719.56;2025016;29;20493;-61
2023/06/10 02:03:26;;;;;;;11.57;9.73;;;;;;;13.68;81.93;95718.03;2017197;29;20558;-61
2023/06/10 02:04:27;;;;;;;12.43;10.57;;;;;;;13.65;82.18;95719.97;2009262;29;20065;-61
2023/06/10 02:05:28;;;;;;;12.43;10.43;;;;;;;13.60;82.50;95716.81;2009737;29;20057;-61
2023/06/10 02:06:29;;;;;;;11.68;10.07;;;;;;;13.56;82.30;95721.41;2009746;29;20465;-61
2023/06/10 02:07:31;;;;;;;12.88;10.25;;;;;;;13.52;82.74;95719.91;2008910;29;20064;-61
2023/06/10 02:08:32;;;;;;;13.32;10.95;;;;;;;13.48;82.80;95717.63;2016919;29;20060;-61
2023/06/10 02:09:36;;;;;;;13.38;11.25;;;;;;;13.45;82.64;95718.66;2016770;29;20064;-61
2023/06/10 02:10:37;;;;;;;15.32;10.25;;;;;;;13.44;83.26;95724.78;2016977;29;20057;-61
2023/06/10 02:11:38;;;;;;;14.23;11.10;;;;;;;13.44;83.13;95720.41;2024503;29;20060;-61
2023/06/10 02:12:39;;;;;;;13.90;11.02;;;;;;;13.40;83.16;95716.31;2024478;29;20057;-61
2023/06/10 02:13:40;;;;;;;12.73;9.85;;;;;;;13.38;83.46;95723.41;2017190;29;20363;-61
2023/06/10 02:14:42;;;;;;;11.50;9.70;;;;;;;13.37;83.72;95726.13;2017304;29;20056;-61
2023/06/10 02:15:43;;;;;;;13.45;10.32;;;;;;;13.36;83.49;95725.25;2009376;29;20057;-61
2023/06/10 02:16:46;;;;;;;13.18;11.10;;;;;;;13.40;83.57;95721.53;2017103;29;20113;-61
2023/06/10 02:17:49;;;;;;;11.85;10.63;;;;;;;13.38;83.69;95720.78;2024888;29;20067;-61
2023/06/10 02:18:50;;;;;;;14.45;10.77;;;;;;;13.35;83.91;95718.38;2009012;29;20080;-61
2023/06/10 02:19:53;;;;;;;16.50;11.02;;;;;;;13.36;83.76;95724.41;2009414;29;20062;-61
2023/06/10 02:20:56;;;;;;;13.82;11.25;;;;;;;13.34;84.27;95723.66;2026640;29;20044;-61
2023/06/10 02:21:57;;;;;;;12.85;11.00;;;;;;;13.30;84.36;95714.38;2027165;29;20366;-61
2023/06/10 02:22:58;;;;;;;13.68;11.13;;;;;;;13.26;83.97;95713.75;2018739;29;20061;-61
2023/06/10 02:24:00;;;;;;;12.35;10.55;;;;;;;13.27;83.93;95725.00;2018625;29;20424;-61
2023/06/10 02:25:03;;;;;;;13.40;10.68;;;;;;;13.22;84.51;95718.25;2018372;29;20052;-61
2023/06/10 02:26:06;;;;;;;16.10;11.18;;;;;;;13.23;84.51;95726.91;2018613;29;20072;-61
2023/06/10 02:27:07;;;;;;;11.45;10.13;;;;;;;13.20;84.76;95729.72;2026512;29;20353;-61
2023/06/10 02:28:08;;;;;;;13.40;10.85;;;;;;;13.19;85.12;95728.06;2026213;29;20051;-61
2023/06/10 02:29:09;;;;;;;12.48;10.80;;;;;;;13.17;85.30;95725.53;2018679;29;20055;-60
2023/06/10 02:30:11;;;;;;;11.95;10.50;;;;;;;13.17;85.15;95727.31;2018025;29;20052;-61
2023/06/10 02:31:13;;;;;;;12.48;10.85;;;;;;;13.14;84.96;95727.50;2017852;29;20080;-60
2023/06/10 02:32:14;;;;;;;13.05;11.18;;;;;;;13.16;85.21;95725.63;2010620;29;20053;-61
2023/06/10 02:33:17;;;;;;;11.93;10.52;;;;;;;13.14;85.34;95723.13;2010415;29;20537;-61
2023/06/10 02:34:18;;;;;;;14.63;11.45;;;;;;;13.06;85.62;95706.28;2010596;29;20061;-61
2023/06/10 02:35:20;;;;;;;13.57;10.80;;;;;;;13.17;85.62;95729.91;2018206;29;20068;-61
2023/06/10 02:36:21;;;;;;;14.10;11.27;;;;;;;13.17;85.06;95722.91;2018620;29;20067;-61
2023/06/10 02:37:22;;;;;;;12.10;10.80;;;;;;;13.15;85.35;95721.34;2010977;29;20065;-61
2023/06/10 02:38:23;;;;;;;11.98;10.48;;;;;;;13.15;85.31;95723.94;2018130;29;20064;-61
2023/06/10 02:39:25;;;;;;;13.57;11.38;;;;;;;12.99;85.25;95706.66;2011011;29;20062;-61
2023/06/10 02:40:26;;;;;;;12.73;11.15;;;;;;;13.09;85.48;95721.72;2018309;29;20064;-61
2023/06/10 02:41:27;;;;;;;12.77;10.95;;;;;;;13.05;85.31;95721.09;2010713;29;20056;-61
2023/06/10 02:42:29;;;;;;;13.52;11.18;;;;;;;13.05;85.31;95722.84;2011110;29;20065;-61
2023/06/10 02:43:30;;;;;;;12.80;11.15;;;;;;;13.01;85.72;95723.03;2018712;29;20471;-61
2023/06/10 02:44:31;;;;;;;13.40;11.80;;;;;;;12.99;86.00;95716.22;2025993;29;20060;-61
2023/06/10 02:45:32;;;;;;;14.93;11.57;;;;;;;12.97;85.99;95718.13;2018327;29;20060;-61
2023/06/10 02:46:35;;;;;;;14.25;11.48;;;;;;;12.95;86.13;95719.97;2010662;29;20425;-60
2023/06/10 02:47:38;;;;;;;16.88;11.63;;;;;;;12.84;86.45;95706.75;2010790;29;20486;-61
2023/06/10 02:48:43;;;;;;;14.55;11.27;;;;;;;12.81;86.30;95710.38;2018328;29;20171;-61
2023/06/10 02:49:45;;;;;;;12.32;10.95;;;;;;;12.87;86.59;95722.19;2010322;29;20057;-61
2023/06/10 02:50:46;;;;;;;14.15;11.20;;;;;;;12.85;86.77;95724.88;2010453;29;20163;-61
2023/06/10 02:51:54;;;;;;;13.82;11.77;;;;;;;12.84;87.16;95725.84;2011702;29;20049;-61
2023/06/10 02:52:55;;;;;;;14.02;11.45;;;;;;;12.81;87.27;95731.22;2010672;29;20049;-61
2023/06/10 02:53:57;;;;;;;13.48;11.80;;;;;;;12.78;87.08;95729.66;2018031;29;20064;-61
2023/06/10 02:54:58;;;;;;;14.43;11.68;;;;;;;12.81;87.08;95728.63;2018295;29;20056;-61
2023/06/10 02:55:59;;;;;;;14.80;12.50;;;;;;;12.78;87.72;95727.03;2018318;29;20249;-61
2023/06/10 02:57:00;;;;;;;13.32;10.90;;;;;;;12.78;87.50;95727.03;2017741;29;20057;-61
2023/06/10 02:58:03;;;;;;;15.13;12.23;;;;;;;12.76;87.11;95725.47;2010675;29;20056;-61
2023/06/10 02:59:07;;;;;;;14.70;11.95;;;;;;;12.75;87.50;95728.97;2010668;29;20056;-61
2023/06/10 03:00:11;;;;;;;13.90;11.95;;;;;;;12.74;87.68;95730.75;2017832;29;20501;-61
2023/06/10 03:01:13;;;;;;;12.15;10.88;;;;;;;12.64;87.55;95713.97;2010678;29;20056;-61
2023/06/10 03:02:28;;;;;;;;;;;;;;;12.70;87.75;95724.06;2011799;29;20053;-61
2023/06/10 03:03:30;;;;;;;14.23;11.50;;;;;;;12.70;88.00;95725.84;2011314;29;20001;-61
2023/06/10 03:04:40;;;;;;;12.68;11.15;;;;;;;12.66;87.87;95727.75;2019200;29;20063;-61
2023/06/10 03:05:46;;;;;;;17.70;12.30;;;;;;;12.64;87.70;95732.22;2018258;29;20049;-61
2023/06/10 03:06:51;;;;;;;14.88;12.27;;;;;;;12.64;88.32;95734.00;2018149;29;20496;-61
2023/06/10 03:07:59;;;;;;;16.25;12.30;;;;;;;12.62;88.28;95730.66;2018238;29;20056;-60
2023/06/10 03:09:00;;;;;;;14.15;11.82;;;;;;;12.55;88.04;95722.34;2018427;29;20520;-61
2023/06/10 03:10:01;;;;;;;15.75;12.82;;;;;;;12.60;88.61;95733.34;2017776;29;20061;-61
2023/06/10 03:11:02;;;;;;;14.77;13.13;;;;;;;12.59;88.57;95731.69;2017975;29;20088;-61
2023/06/10 03:12:05;;;;;;;15.15;11.60;;;;;;;12.57;89.10;95731.75;2010033;29;20062;-61
2023/06/10 03:13:11;;;;;;;15.23;12.40;;;;;;;12.56;89.04;95734.44;2011234;29;20065;-61
2023/06/10 03:14:12;;;;;;;15.90;11.73;;;;;;;12.55;88.55;95736.22;2010370;29;20060;-61
2023/06/10 03:15:14;;;;;;;14.45;12.55;;;;;;;12.54;89.35;95737.16;2009832;29;20060;-61
2023/06/10 03:16:15;;;;;;;14.50;11.88;;;;;;;12.53;88.83;95745.03;2010168;29;20080;-61
2023/06/10 03:17:17;;;;;;;16.02;12.45;;;;;;;12.53;89.02;95747.66;2009813;29;20064;-61
2023/06/10 03:18:20;;;;;;;14.70;12.80;;;;;;;12.54;89.31;95744.97;2017759;29;20049;-61
2023/06/10 03:19:23;;;;;;;15.70;12.70;;;;;;;12.54;89.69;95742.38;2010777;29;20062;-61
2023/06/10 03:20:27;;;;;;;14.23;12.20;;;;;;;12.59;89.51;95739.50;2017430;29;20060;-61
2023/06/10 03:21:28;;;;;;;14.75;12.43;;;;;;;12.63;89.74;95747.97;2018410;29;20045;-61
2023/06/10 03:22:31;;;;;;;15.55;12.43;;;;;;;12.64;89.49;95744.41;2018073;29;20139;-61
2023/06/10 03:23:38;;;;;;;14.27;12.73;;;;;;;12.69;88.98;95744.97;2010963;29;20050;-61
2023/06/10 03:24:40;;;;;;;14.18;12.50;;;;;;;12.55;89.08;95725.78;2010018;29;20064;-61
2023/06/10 03:25:42;;;;;;;12.95;11.55;;;;;;;12.72;88.93;95748.25;2017560;29;20087;-61
2023/06/10 03:26:47;;;;;;;15.90;12.25;;;;;;;12.73;89.25;95749.09;2018316;29;20068;-58
2023/06/10 03:27:49;;;;;;;14.07;11.90;;;;;;;12.74;89.00;95748.97;2017956;29;20049;-58
2023/06/10 03:28:51;;;;;;;15.93;12.18;;;;;;;12.75;88.73;95742.88;2010534;29;20489;-57
2023/06/10 03:29:54;;;;;;;15.00;12.63;;;;;;;12.77;88.92;95754.00;2010127;29;20176;-58
2023/06/10 03:30:55;;;;;;;14.93;12.48;;;;;;;12.79;88.76;95746.13;2017574;29;20049;-57
2023/06/10 03:31:58;;;;;;;15.90;12.43;;;;;;;12.83;88.70;95752.84;2017982;29;20045;-58
2023/06/10 03:33:00;;;;;;;14.20;12.13;;;;;;;12.91;88.44;95745.38;2010450;29;20046;-57
2023/06/10 03:34:03;;;;;;;15.02;12.48;;;;;;;12.92;88.03;95749.66;2018029;29;20052;-57
2023/06/10 03:35:04;;;;;;;15.93;12.02;;;;;;;12.93;87.93;95753.94;2010183;29;20477;-57
2023/06/10 03:36:07;;;;;;;13.65;11.85;;;;;;;12.94;87.92;95753.00;2018343;29;20048;-57
2023/06/10 03:37:09;;;;;;;14.23;12.23;;;;;;;12.97;87.68;95758.03;2017382;29;20053;-57
2023/06/10 03:38:10;;;;;;;12.52;11.15;;;;;;;13.05;87.83;95761.97;2010015;29;20061;-57
2023/06/10 03:39:12;;;;;;;15.52;11.35;;;;;;;13.09;87.20;95758.22;2017314;29;20052;-57
2023/06/10 03:40:14;;;;;;;13.82;11.63;;;;;;;13.12;86.88;95758.84;2010395;29;20060;-57
2023/06/10 03:41:18;;;;;;;15.27;11.77;;;;;;;13.17;86.67;95755.97;2011239;29;20528;-57
2023/06/10 03:42:20;;;;;;;14.50;12.07;;;;;;;13.16;86.90;95757.75;2009711;29;20057;-57
2023/06/10 03:43:21;;;;;;;14.32;12.18;;;;;;;13.13;86.44;95759.72;2009632;29;20057;-57
2023/06/10 03:44:24;;;;;;;14.70;11.48;;;;;;;13.14;86.50;95764.00;2010229;29;20120;-58
2023/06/10 03:45:28;;;;;;;14.68;11.75;;;;;;;13.12;86.85;95758.03;2010216;29;20051;-57
2023/06/10 03:46:29;;;;;;;16.20;11.77;;;;;;;13.14;86.56;95754.41;2017419;29;20406;-57
2023/06/10 03:47:34;;;;;;;13.75;11.57;;;;;;;13.24;86.34;95767.72;2018081;29;20388;-58
2023/06/10 03:48:37;;;;;;;12.93;11.32;;;;;;;13.22;86.30;95773.03;2018037;29;20417;-57
2023/06/10 03:49:38;;;;;;;12.88;11.13;;;;;;;13.16;86.05;95751.72;2025151;29;20063;-57
2023/06/10 03:50:39;;;;;;;15.13;11.32;;;;;;;13.25;86.38;95765.00;2017271;29;20163;-58
2023/06/10 03:51:40;;;;;;;13.77;12.00;;;;;;;13.29;86.19;95767.47;2018317;29;20055;-56
2023/06/10 03:52:41;;;;;;;14.63;11.38;;;;;;;13.29;85.93;95760.50;2017367;29;20056;-56
2023/06/10 03:53:43;;;;;;;14.05;11.27;;;;;;;13.31;86.02;95766.47;2010377;29;20061;-57
2023/06/10 03:54:44;;;;;;;14.43;11.43;;;;;;;13.32;85.88;95769.91;2017479;29;20475;-57
2023/06/10 03:55:45;;;;;;;17.25;11.82;;;;;;;13.40;85.43;95767.66;2017761;29;20049;-57
2023/06/10 03:56:48;;;;;;;16.00;11.00;;;;;;;13.42;85.12;95768.41;2017837;29;20144;-57
2023/06/10 03:57:49;;;;;;;14.25;11.60;;;;;;;13.40;84.91;95770.25;2017889;29;20060;-58
2023/06/10 03:58:51;;;;;;;13.30;11.68;;;;;;;13.34;84.65;95758.44;2017410;29;20060;-57
2023/06/10 03:59:52;;;;;;;13.77;10.77;;;;;;;13.45;85.01;95768.19;2017839;29;20056;-57
2023/06/10 04:00:55;;;;;;;15.30;11.63;;;;;;;13.48;85.11;95770.63;2017758;29;20048;-57
2023/06/10 04:02:04;;;;;;;15.63;10.40;;;;;;;13.53;84.66;95776.38;2017029;29;20049;-58
2023/06/10 04:03:08;;;;;;;12.80;10.65;;;;;;;13.57;84.38;95775.25;2010171;29;20065;-57
2023/06/10 04:04:14;;;;;;;15.45;10.98;;;;;;;13.50;83.82;95752.25;2018890;29;20064;-57
2023/06/10 04:05:16;;;;;;;12.13;10.80;;;;;;;13.52;84.08;95759.03;2017812;29;20067;-57
2023/06/10 04:06:17;;;;;;;13.55;11.40;;;;;;;13.55;83.97;95761.47;2017748;29;20049;-57
2023/06/10 04:07:20;;;;;;;12.95;11.00;;;;;;;13.66;83.97;95769.47;2018102;29;20041;-57
2023/06/10 04:08:21;;;;;;;12.93;9.93;;;;;;;13.72;83.93;95777.84;2017438;29;20065;-57
2023/06/10 04:09:22;;;;;;;13.02;10.65;;;;;;;13.72;83.54;95767.41;2017658;29;20382;-57
2023/06/10 04:10:24;;;;;;;13.13;10.65;;;;;;;13.76;83.53;95774.09;2017463;29;20064;-57
2023/06/10 04:11:26;;;;;;;13.32;10.65;;;;;;;13.79;83.32;95773.91;2009920;29;20058;-57
2023/06/10 04:12:28;;;;;;;12.05;10.48;;;;;;;13.83;82.96;95775.38;2010162;29;20049;-57
2023/06/10 04:13:29;;;;;;;13.35;11.23;;;;;;;13.84;82.64;95775.28;2017202;29;20057;-57
2023/06/10 04:14:33;;;;;;;11.73;10.10;;;;;;;13.84;82.30;95769.22;2017083;29;20462;-57
2023/06/10 04:15:34;;;;;;;12.55;10.73;;;;;;;13.88;82.39;95778.53;2017581;29;20060;-57
2023/06/10 04:16:40;;;;;;;15.05;10.43;;;;;;;13.89;82.31;95775.81;2017233;29;20085;-57
2023/06/10 04:17:42;;;;;;;12.48;10.63;;;;;;;13.89;82.25;95775.81;2017167;29;20440;-57
2023/06/10 04:18:44;;;;;;;14.23;11.15;;;;;;;13.93;82.03;95786.94;2017593;29;20087;-57
2023/06/10 04:19:46;;;;;;;12.35;10.45;;;;;;;13.98;82.07;95778.78;2017344;29;20057;-57
2023/06/10 04:20:47;;;;;;;13.70;10.82;;;;;;;14.00;82.26;95776.91;2009821;29;20080;-57
2023/06/10 04:21:49;;;;;;;12.52;10.02;;;;;;;14.03;81.98;95777.56;2009357;29;20092;-58
2023/06/10 04:22:50;;;;;;;12.65;10.18;;;;;;;14.06;81.79;95779.97;2009317;29;20072;-57
2023/06/10 04:23:51;;;;;;;12.95;10.75;;;;;;;14.09;81.41;95773.72;2010137;29;20058;-57
2023/06/10 04:24:52;;;;;;;12.95;10.25;;;;;;;14.08;82.17;95780.69;2009838;29;20053;-57
2023/06/10 04:25:54;;;;;;;17.25;10.77;;;;;;;14.11;80.94;95774.44;2009979;29;20057;-57
2023/06/10 04:26:55;;;;;;;13.70;10.38;;;;;;;14.16;81.03;95788.03;2009952;29;20053;-57
2023/06/10 04:27:56;;;;;;;12.13;9.98;;;;;;;14.21;81.06;95785.13;2009379;29;20057;-57
2023/06/10 04:28:58;;;;;;;12.23;10.23;;;;;;;14.19;80.83;95774.78;2017880;29;20060;-57
2023/06/10 04:29:59;;;;;;;14.23;10.38;;;;;;;14.28;80.71;95781.19;2016984;29;20480;-57
2023/06/10 04:31:01;;;;;;;11.52;9.95;;;;;;;14.30;80.97;95781.91;2025257;29;20501;-57
2023/06/10 04:32:05;;;;;;;12.82;10.27;;;;;;;14.33;80.80;95785.19;2016758;29;20057;-57
2023/06/10 04:33:08;;;;;;;13.13;10.77;;;;;;;14.38;80.34;95778.81;2017409;29;20048;-57
2023/06/10 04:34:10;;;;;;;13.10;9.98;;;;;;;14.41;80.18;95792.53;2017078;29;20057;-57
2023/06/10 04:35:11;;;;;;;12.02;9.77;;;;;;;14.44;80.61;95787.09;2017484;29;20048;-57
2023/06/10 04:36:14;;;;;;;12.25;10.52;;;;;;;14.47;80.16;95783.44;2017315;29;20417;-57
2023/06/10 04:37:15;;;;;;;11.55;9.93;;;;;;;14.49;79.98;95784.19;2017780;29;20433;-57
2023/06/10 04:38:16;;;;;;;13.05;10.63;;;;;;;14.50;79.90;95786.69;2017164;29;20064;-57
2023/06/10 04:39:18;;;;;;;16.27;10.40;;;;;;;14.53;79.65;95785.66;2017156;29;20053;-57
2023/06/10 04:40:19;;;;;;;14.57;10.82;;;;;;;14.53;79.71;95781.28;2017177;29;20064;-57
2023/06/10 04:41:22;;;;;;;12.10;10.10;;;;;;;14.57;79.49;95781.94;2017476;29;20045;-57
2023/06/10 04:42:23;;;;;;;12.82;10.20;;;;;;;14.61;79.20;95779.94;2009178;29;20068;-57
2023/06/10 04:43:24;;;;;;;18.17;9.95;;;;;;;14.65;79.63;95789.22;2016697;29;20064;-57
2023/06/10 04:44:26;;;;;;;11.85;9.98;;;;;;;14.70;79.35;95777.56;2017415;29;20076;-57
2023/06/10 04:45:29;;;;;;;13.07;10.55;;;;;;;14.70;79.24;95785.41;2009746;29;20057;-57
2023/06/10 04:46:31;;;;;;;13.73;11.23;;;;;;;14.67;79.27;95784.75;2009386;29;20057;-57
2023/06/10 04:47:33;;;;;;;11.90;10.23;;;;;;;14.70;78.79;95784.53;2016988;29;20068;-57
2023/06/10 04:48:35;;;;;;;12.25;10.50;;;;;;;14.70;79.27;95785.41;2017432;29;20489;-57
2023/06/10 04:49:36;;;;;;;13.57;10.80;;;;;;;14.73;79.06;95785.19;2017501;29;20542;-57